Time;durP1;ratioP1;P1;durP2;ratioP2;P2;SDS_P1;SDS_P2;PMS_P1;PMS_P2;Temp;Humidity;BMP_temperature;BMP_pressure;BME280_temperature;BME280_humidity;BME280_pressure;Samples;Min_cycle;Max_cycle;Signal;HPM_P1;HPM_P2
2021/07/27 00:02:07;;;;;;;7.32;6.63;;;14.90;99.90;;;;;;5072279;28;20447;-85
2021/07/27 00:04:34;;;;;;;10.05;6.97;;;14.90;99.90;;;;;;5073678;28;20054;-85
2021/07/27 00:07:01;;;;;;;7.57;6.78;;;14.90;99.90;;;;;;5072990;28;20102;-85
2021/07/27 00:09:27;;;;;;;9.73;6.95;;;14.80;99.90;;;;;;5071962;28;20053;-85
2021/07/27 00:11:54;;;;;;;8.68;6.18;;;14.80;99.90;;;;;;5071991;28;20084;-85
2021/07/27 00:14:21;;;;;;;8.85;7.57;;;14.80;99.90;;;;;;5071987;28;20411;-85
2021/07/27 00:16:48;;;;;;;13.77;8.52;;;14.90;99.90;;;;;;5073122;28;20124;-84
2021/07/27 00:19:15;;;;;;;9.93;7.85;;;14.90;99.90;;;;;;5071509;28;20041;-85
2021/07/27 00:21:41;;;;;;;10.15;7.35;;;14.90;99.90;;;;;;5071671;28;20071;-85
2021/07/27 00:24:08;;;;;;;9.25;7.22;;;14.90;99.90;;;;;;5071520;28;20127;-85
2021/07/27 00:26:35;;;;;;;10.10;7.30;;;14.90;99.90;;;;;;5071959;28;20048;-85
2021/07/27 00:29:03;;;;;;;8.93;7.70;;;14.90;99.90;;;;;;5072027;28;20047;-86
2021/07/27 00:31:29;;;;;;;8.30;6.97;;;14.90;99.90;;;;;;5072821;28;20055;-86
2021/07/27 00:33:56;;;;;;;8.68;6.93;;;14.80;99.90;;;;;;5073191;28;20053;-86
2021/07/27 00:36:23;;;;;;;8.15;7.35;;;14.80;99.90;;;;;;5072606;28;20041;-85
2021/07/27 00:38:50;;;;;;;9.20;6.60;;;14.80;99.90;;;;;;5072869;28;20082;-85
2021/07/27 00:41:16;;;;;;;8.88;6.57;;;14.80;99.90;;;;;;5072927;28;20052;-85
2021/07/27 00:43:43;;;;;;;8.43;6.22;;;14.70;99.90;;;;;;5071792;28;20457;-85
2021/07/27 00:46:10;;;;;;;9.48;6.75;;;14.60;99.90;;;;;;5071417;28;20053;-86
2021/07/27 00:48:37;;;;;;;11.13;7.07;;;14.60;99.90;;;;;;5071577;28;20041;-85
2021/07/27 00:51:04;;;;;;;8.35;6.32;;;14.50;99.90;;;;;;5072717;28;20044;-85
2021/07/27 00:53:31;;;;;;;10.13;7.68;;;14.50;99.90;;;;;;5071600;28;20048;-85
2021/07/27 00:55:58;;;;;;;9.77;6.47;;;14.50;99.90;;;;;;5071587;28;20055;-85
2021/07/27 00:58:25;;;;;;;16.77;7.80;;;14.50;99.90;;;;;;5071537;28;20441;-85
2021/07/27 01:00:52;;;;;;;9.55;7.93;;;14.50;99.90;;;;;;5072584;28;20048;-85
2021/07/27 01:03:19;;;;;;;8.68;7.55;;;14.40;99.90;;;;;;5072484;28;20444;-85
2021/07/27 01:05:46;;;;;;;8.35;7.47;;;14.40;99.90;;;;;;5071675;28;20049;-85
2021/07/27 01:08:13;;;;;;;13.07;7.15;;;14.50;99.90;;;;;;5072457;28;20497;-85
2021/07/27 01:10:40;;;;;;;12.90;8.15;;;14.50;99.90;;;;;;5071388;28;20509;-84
2021/07/27 01:13:07;;;;;;;10.18;8.05;;;14.60;99.90;;;;;;5072179;28;20530;-84
2021/07/27 01:15:33;;;;;;;9.30;7.65;;;14.60;99.90;;;;;;5072407;28;20055;-85
2021/07/27 01:18:04;;;;;;;9.20;7.80;;;14.50;99.90;;;;;;5071944;28;20532;-85
2021/07/27 01:20:46;;;;;;;9.43;7.43;;;14.50;99.90;;;;;;5072832;28;20059;-85
2021/07/27 01:39:47;;;;;;;7.65;6.95;;;14.30;99.90;;;;;;5075713;28;20121;-85
2021/07/27 01:42:14;;;;;;;8.40;7.60;;;14.20;99.90;;;;;;5074403;28;20088;-84
2021/07/27 01:44:50;;;;;;;11.85;7.32;;;14.20;99.90;;;;;;5074512;28;20074;-86
2021/07/27 01:47:18;;;;;;;10.20;8.05;;;14.10;99.90;;;;;;5074545;28;20390;-85
2021/07/27 01:49:46;;;;;;;11.43;7.68;;;14.10;99.90;;;;;;5074234;28;20059;-85
2021/07/27 01:52:14;;;;;;;10.32;8.10;;;14.00;99.90;;;;;;5074420;28;20052;-84
2021/07/27 01:54:41;;;;;;;13.48;8.20;;;14.10;99.90;;;;;;5076063;28;20052;-85
2021/07/27 01:57:10;;;;;;;9.27;8.35;;;14.10;99.90;;;;;;5074470;28;20044;-83
2021/07/27 01:59:37;;;;;;;8.65;7.75;;;14.10;99.90;;;;;;5075561;28;20135;-85
2021/07/27 02:02:05;;;;;;;9.30;8.43;;;14.20;99.90;;;;;;5075256;28;20077;-84
2021/07/27 02:04:32;;;;;;;12.95;7.90;;;14.20;99.90;;;;;;5075283;28;20088;-84
2021/07/27 02:06:59;;;;;;;10.93;8.25;;;14.20;99.90;;;;;;5075259;28;20040;-84
2021/07/27 02:09:32;;;;;;;8.88;7.97;;;14.30;99.90;;;;;;5073699;28;20048;-84
2021/07/27 02:12:01;;;;;;;11.52;8.23;;;14.30;99.90;;;;;;5073547;28;20048;-84
2021/07/27 02:15:03;;;;;;;9.63;7.53;;;14.30;99.90;;;;;;5073569;28;20052;-84
2021/07/27 02:17:14;;;;;;;10.32;7.65;;;14.40;99.90;;;;;;5074827;28;20051;-85
2021/07/27 02:19:41;;;;;;;9.65;7.80;;;14.30;99.90;;;;;;5074895;28;20155;-85
2021/07/27 02:22:08;;;;;;;10.63;7.63;;;14.30;99.90;;;;;;5074812;28;20098;-84
2021/07/27 02:24:35;;;;;;;10.80;7.85;;;14.30;99.90;;;;;;5073600;28;20040;-85
2021/07/27 02:27:02;;;;;;;8.43;7.72;;;14.30;99.90;;;;;;5074530;28;20052;-84
2021/07/27 02:29:28;;;;;;;8.60;7.80;;;14.20;99.90;;;;;;5073225;28;20045;-85
2021/07/27 02:31:55;;;;;;;9.55;7.22;;;14.20;99.90;;;;;;5073341;28;20044;-85
2021/07/27 02:34:31;;;;;;;9.18;7.57;;;14.20;99.90;;;;;;5073759;28;20093;-85
2021/07/27 02:36:58;;;;;;;10.80;6.80;;;14.10;99.90;;;;;;5073653;28;20080;-85
2021/07/27 02:39:25;;;;;;;8.00;6.95;;;14.00;99.90;;;;;;5073713;28;20045;-85
2021/07/27 02:41:51;;;;;;;9.15;6.50;;;14.00;99.90;;;;;;5074622;28;20335;-85
2021/07/27 02:44:18;;;;;;;11.32;7.30;;;13.80;99.90;;;;;;5073176;28;20364;-85
2021/07/27 02:46:45;;;;;;;15.13;8.68;;;13.80;99.90;;;;;;5073108;28;20048;-85
2021/07/27 02:49:12;;;;;;;10.40;8.27;;;13.80;99.90;;;;;;5072886;28;20052;-85
2021/07/27 02:51:38;;;;;;;10.35;8.00;;;13.80;99.90;;;;;;5073048;28;20060;-84
2021/07/27 02:54:07;;;;;;;9.15;7.82;;;13.80;99.90;;;;;;5072923;28;20044;-85
2021/07/27 02:56:33;;;;;;;10.98;8.95;;;13.90;99.90;;;;;;5072639;28;20044;-84
2021/07/27 02:59:00;;;;;;;15.15;9.93;;;13.90;99.90;;;;;;5073896;28;20398;-84
2021/07/27 03:01:27;;;;;;;12.45;9.68;;;13.90;99.90;;;;;;5072690;28;20045;-85
2021/07/27 03:03:54;;;;;;;18.17;12.77;;;14.00;99.90;;;;;;5072993;28;20072;-85
2021/07/27 03:06:21;;;;;;;22.70;10.32;;;14.00;99.90;;;;;;5072846;28;20057;-85
2021/07/27 03:08:52;;;;;;;15.70;9.80;;;14.10;99.90;;;;;;5072947;28;20143;-85
2021/07/27 03:11:19;;;;;;;14.27;9.70;;;14.10;99.90;;;;;;5072826;28;20048;-84
2021/07/27 03:13:46;;;;;;;12.30;8.82;;;14.10;99.90;;;;;;5075599;28;20462;-84
2021/07/27 03:16:18;;;;;;;13.30;8.05;;;14.00;99.90;;;;;;5073552;28;20131;-85
2021/07/27 03:18:46;;;;;;;12.55;8.75;;;13.90;99.90;;;;;;5073647;28;20570;-84
2021/07/27 03:21:21;;;;;;;11.93;9.30;;;13.90;99.90;;;;;;5072678;28;20401;-84
2021/07/27 03:23:49;;;;;;;13.57;9.35;;;14.00;99.90;;;;;;5072617;28;20083;-85
2021/07/27 03:26:17;;;;;;;12.60;8.85;;;14.00;99.90;;;;;;5073356;28;20059;-84
2021/07/27 03:28:45;;;;;;;11.93;10.00;;;14.10;99.90;;;;;;5072329;28;20044;-84
2021/07/27 03:31:12;;;;;;;9.48;8.50;;;14.10;99.90;;;;;;5072409;28;20135;-85
2021/07/27 03:33:39;;;;;;;11.05;8.73;;;14.10;99.90;;;;;;5072329;28;20044;-85
2021/07/27 03:36:06;;;;;;;11.57;9.55;;;14.20;99.90;;;;;;5073326;28;20047;-84
2021/07/27 03:38:36;;;;;;;13.00;9.25;;;14.20;99.90;;;;;;5073448;28;20557;-86
2021/07/27 03:41:07;;;;;;;16.17;12.13;;;14.20;99.90;;;;;;5072220;28;20056;-85
2021/07/27 03:43:35;;;;;;;18.48;10.40;;;14.20;99.90;;;;;;5072093;28;20461;-85
2021/07/27 03:46:02;;;;;;;20.05;11.75;;;14.30;99.90;;;;;;5073212;28;20045;-85
2021/07/27 03:48:29;;;;;;;15.93;10.48;;;14.30;99.90;;;;;;5073134;28;20048;-84
2021/07/27 03:50:56;;;;;;;11.82;9.95;;;14.30;99.90;;;;;;5072037;28;20428;-85
2021/07/27 03:53:27;;;;;;;13.38;9.30;;;14.30;99.90;;;;;;5071933;28;20052;-84
2021/07/27 03:55:54;;;;;;;10.57;9.50;;;14.30;99.90;;;;;;5071845;28;20048;-85
2021/07/27 03:58:20;;;;;;;9.57;8.70;;;14.30;99.90;;;;;;5072044;28;20119;-85
2021/07/27 04:00:49;;;;;;;10.20;9.10;;;14.40;99.90;;;;;;5072018;28;20080;-86
2021/07/27 04:03:16;;;;;;;11.82;9.82;;;14.40;99.90;;;;;;5072941;28;20047;-84
2021/07/27 04:05:46;;;;;;;13.73;9.57;;;14.40;99.90;;;;;;5071816;28;20408;-85
2021/07/27 04:08:13;;;;;;;16.48;10.63;;;14.40;99.90;;;;;;5072161;28;20488;-84
2021/07/27 04:10:40;;;;;;;14.80;10.30;;;14.40;99.90;;;;;;5072056;28;20088;-85
2021/07/27 04:13:07;;;;;;;13.10;11.75;;;14.50;99.90;;;;;;5071513;28;20139;-85
2021/07/27 04:15:34;;;;;;;17.05;11.65;;;14.60;99.90;;;;;;5071293;28;20076;-84
2021/07/27 04:18:01;;;;;;;14.68;10.23;;;14.70;99.90;;;;;;5069930;28;20064;-84
2021/07/27 04:20:28;;;;;;;13.18;10.05;;;14.70;99.90;;;;;;5071089;28;20044;-85
2021/07/27 04:22:54;;;;;;;13.57;10.57;;;14.70;99.90;;;;;;5072071;28;20431;-85
2021/07/27 04:25:21;;;;;;;14.88;10.48;;;14.70;99.90;;;;;;5071855;28;20055;-84
2021/07/27 04:27:48;;;;;;;11.82;10.07;;;14.80;99.90;;;;;;5071833;28;20048;-84
2021/07/27 04:30:15;;;;;;;13.20;9.98;;;14.80;99.90;;;;;;5071841;28;20047;-85
2021/07/27 04:32:42;;;;;;;14.98;9.68;;;14.90;99.90;;;;;;5073381;28;20056;-85
2021/07/27 04:35:10;;;;;;;11.25;9.32;;;14.90;99.90;;;;;;5071827;28;20045;-85
2021/07/27 04:37:37;;;;;;;10.32;9.23;;;15.00;99.90;;;;;;5071825;28;20045;-85
2021/07/27 04:40:04;;;;;;;17.42;9.88;;;15.00;99.90;;;;;;5071758;28;20052;-84
2021/07/27 04:42:31;;;;;;;14.20;9.15;;;15.00;99.90;;;;;;5072737;28;20540;-85
2021/07/27 04:44:58;;;;;;;15.57;10.48;;;15.10;99.90;;;;;;5071941;28;20055;-85
2021/07/27 04:47:24;;;;;;;11.02;10.02;;;15.10;99.90;;;;;;5071763;28;20048;-85
2021/07/27 04:49:52;;;;;;;14.20;11.27;;;15.20;99.90;;;;;;5071779;28;20055;-85
2021/07/27 04:52:21;;;;;;;16.83;10.27;;;15.30;99.90;;;;;;5071534;28;20072;-85
2021/07/27 04:54:51;;;;;;;13.13;10.63;;;15.40;99.90;;;;;;5072591;28;20143;-84
2021/07/27 04:57:18;;;;;;;14.57;12.23;;;15.40;99.90;;;;;;5075718;28;20040;-85
2021/07/27 04:59:45;;;;;;;12.23;10.50;;;15.50;99.90;;;;;;5076579;28;20098;-85
2021/07/27 05:02:12;;;;;;;10.75;9.57;;;15.60;99.90;;;;;;5075460;28;20505;-85
2021/07/27 05:04:40;;;;;;;11.82;9.85;;;15.70;99.90;;;;;;5075399;28;20078;-85
2021/07/27 05:07:08;;;;;;;12.30;9.38;;;15.80;99.90;;;;;;5076722;28;20148;-84
2021/07/27 05:09:35;;;;;;;11.45;9.38;;;15.80;99.90;;;;;;5075563;28;20048;-85
2021/07/27 05:12:02;;;;;;;13.02;9.18;;;15.80;99.90;;;;;;5075025;28;20045;-85
2021/07/27 05:14:29;;;;;;;12.77;10.48;;;16.00;99.90;;;;;;5076316;28;20059;-85
2021/07/27 05:17:08;;;;;;;11.13;10.10;;;16.10;99.90;;;;;;5075100;28;20051;-86
2021/07/27 05:19:36;;;;;;;15.18;12.48;;;16.30;99.90;;;;;;5075280;28;20053;-85
2021/07/27 05:22:03;;;;;;;13.02;11.90;;;16.60;99.90;;;;;;5075039;28;20048;-86
2021/07/27 05:24:29;;;;;;;13.27;12.02;;;16.80;99.90;;;;;;5075262;28;20544;-85
2021/07/27 05:26:56;;;;;;;12.57;11.32;;;17.10;99.90;;;;;;5076199;28;20072;-86
2021/07/27 05:29:23;;;;;;;9.63;5.78;;;17.80;99.90;;;;;;5075159;28;20056;-85
2021/07/27 05:31:50;;;;;;;5.90;5.50;;;18.80;99.90;;;;;;5075070;28;20048;-85
2021/07/27 05:34:17;;;;;;;4.68;3.90;;;20.20;99.90;;;;;;5074759;28;20055;-86
2021/07/27 05:36:44;;;;;;;4.43;3.88;;;21.20;99.90;;;;;;5075165;28;20072;-85
2021/07/27 05:39:10;;;;;;;2.95;2.75;;;22.50;99.90;;;;;;5074836;28;20108;-86
2021/07/27 05:41:37;;;;;;;4.22;3.38;;;23.60;99.90;;;;;;5075022;28;20075;-86
2021/07/27 05:44:04;;;;;;;4.03;3.22;;;24.20;99.90;;;;;;5074762;28;20059;-86
2021/07/27 05:46:31;;;;;;;4.78;2.95;;;25.40;99.90;;;;;;5074807;28;20049;-85
2021/07/27 05:48:58;;;;;;;2.72;2.53;;;26.00;99.90;;;;;;5076243;28;20090;-86
2021/07/27 05:51:26;;;;;;;3.78;2.78;;;26.50;99.90;;;;;;5081725;28;20058;-87
2021/07/27 05:53:53;;;;;;;4.82;3.05;;;27.00;99.90;;;;;;5078015;28;20044;-86
2021/07/27 05:56:20;;;;;;;4.70;3.00;;;27.40;99.90;;;;;;5076184;28;20048;-85
2021/07/27 05:58:47;;;;;;;3.00;2.70;;;27.70;99.90;;;;;;5075029;28;20052;-84
2021/07/27 06:01:14;;;;;;;5.50;2.60;;;27.70;99.90;;;;;;5075889;28;20045;-86
2021/07/27 06:03:40;;;;;;;2.90;2.55;;;27.90;99.90;;;;;;5075810;28;20057;-84
2021/07/27 06:06:07;;;;;;;4.07;2.60;;;28.40;99.90;;;;;;5075192;28;20041;-85
2021/07/27 06:08:34;;;;;;;2.63;2.50;;;28.40;99.90;;;;;;5075298;28;20051;-87
2021/07/27 06:11:04;;;;;;;3.17;2.60;;;28.80;99.90;;;;;;5074406;28;20060;-87
2021/07/27 06:13:32;;;;;;;4.03;2.28;;;27.90;99.90;;;;;;5074388;28;20052;-86
2021/07/27 06:16:06;;;;;;;2.80;2.60;;;28.00;99.90;;;;;;5074221;28;20052;-86
2021/07/27 06:18:33;;;;;;;2.38;2.17;;;27.50;99.90;;;;;;5075336;28;20062;-87
2021/07/27 06:21:00;;;;;;;2.78;2.50;;;27.50;99.90;;;;;;5074415;28;20120;-86
2021/07/27 06:23:27;;;;;;;2.90;2.58;;;27.40;99.90;;;;;;5074004;28;20452;-86
2021/07/27 06:25:54;;;;;;;3.00;2.80;;;26.20;99.90;;;;;;5074067;28;20044;-86
2021/07/27 06:28:21;;;;;;;2.55;2.40;;;25.70;99.90;;;;;;5074276;28;20055;-85
2021/07/27 06:30:47;;;;;;;3.50;2.53;;;25.70;99.90;;;;;;5074296;28;20049;-86
2021/07/27 06:33:14;;;;;;;4.25;3.05;;;25.70;99.90;;;;;;5073762;28;20412;-85
2021/07/27 06:35:41;;;;;;;5.50;2.70;;;25.80;99.90;;;;;;5074037;28;20408;-85
2021/07/27 06:38:07;;;;;;;2.50;2.40;;;26.30;99.90;;;;;;5073701;28;20048;-85
2021/07/27 06:40:34;;;;;;;4.40;2.60;;;26.40;99.90;;;;;;5074097;28;20044;-88
2021/07/27 06:43:02;;;;;;;2.50;2.30;;;27.10;99.90;;;;;;5073834;28;20131;-86
2021/07/27 06:45:28;;;;;;;2.70;2.50;;;26.80;99.90;;;;;;5073605;28;20507;-84
2021/07/27 06:47:55;;;;;;;3.55;2.47;;;27.40;99.90;;;;;;5073265;28;20054;-84
2021/07/27 06:50:22;;;;;;;2.90;2.70;;;28.60;99.90;;;;;;5073620;28;20136;-84
2021/07/27 06:52:49;;;;;;;2.53;2.42;;;29.90;97.50;;;;;;5073524;28;20439;-83
2021/07/27 06:55:19;;;;;;;2.55;2.28;;;30.70;94.50;;;;;;5073700;28;20041;-82
2021/07/27 06:57:50;;;;;;;2.60;2.40;;;31.40;90.60;;;;;;5073417;28;20507;-83
2021/07/27 07:00:17;;;;;;;2.92;2.25;;;30.80;89.70;;;;;;5074442;28;20056;-83
2021/07/27 07:02:43;;;;;;;4.13;2.15;;;30.80;88.60;;;;;;5073242;28;20427;-84
2021/07/27 07:05:11;;;;;;;2.53;2.33;;;31.20;87.70;;;;;;5073186;28;20060;-83
2021/07/27 07:07:39;;;;;;;2.85;2.22;;;31.60;87.00;;;;;;5073124;28;20058;-86
2021/07/27 07:10:06;;;;;;;2.72;2.47;;;32.90;83.80;;;;;;5073322;28;20128;-84
2021/07/27 07:12:33;;;;;;;2.22;2.03;;;32.50;79.50;;;;;;5074241;28;20063;-85
2021/07/27 07:15:00;;;;;;;2.55;2.10;;;32.40;81.10;;;;;;5073046;28;20048;-84
2021/07/27 07:17:26;;;;;;;2.35;2.17;;;33.30;79.20;;;;;;5072372;28;20127;-85
2021/07/27 07:19:54;;;;;;;2.42;2.22;;;33.10;77.50;;;;;;5073244;28;20412;-83
2021/07/27 07:22:20;;;;;;;3.50;2.50;;;33.00;74.80;;;;;;5073180;28;20127;-87
2021/07/27 07:24:47;;;;;;;2.30;2.08;;;31.90;75.60;;;;;;5073102;28;20382;-86
2021/07/27 07:27:14;;;;;;;2.13;2.03;;;32.20;78.70;;;;;;5073033;28;20052;-87
2021/07/27 07:29:41;;;;;;;3.65;2.08;;;32.20;76.10;;;;;;5072663;28;20076;-87
2021/07/27 07:32:08;;;;;;;2.80;2.22;;;33.10;76.70;;;;;;5072619;28;20400;-85
2021/07/27 07:34:35;;;;;;;2.72;2.53;;;32.70;74.20;;;;;;5072527;28;20055;-87
2021/07/27 07:37:03;;;;;;;2.50;2.30;;;32.70;74.20;;;;;;5072745;28;20485;-84
2021/07/27 07:39:31;;;;;;;2.47;2.28;;;31.30;74.40;;;;;;5072563;28;20054;-87
2021/07/27 07:42:01;;;;;;;2.40;2.30;;;31.60;76.20;;;;;;5072656;28;20141;-87
2021/07/27 07:44:29;;;;;;;3.15;2.25;;;30.60;77.40;;;;;;5073839;28;20135;-86
2021/07/27 07:46:55;;;;;;;2.58;2.40;;;30.80;79.40;;;;;;5072726;28;20134;-87
2021/07/27 07:49:22;;;;;;;4.63;2.58;;;31.20;78.40;;;;;;5072324;28;20103;-86
2021/07/27 07:51:50;;;;;;;2.45;2.35;;;30.60;80.30;;;;;;5072593;28;20418;-86
2021/07/27 07:54:17;;;;;;;3.08;2.45;;;30.20;80.50;;;;;;5072328;28;20511;-87
2021/07/27 07:56:45;;;;;;;2.42;2.30;;;29.60;81.10;;;;;;5072469;28;20048;-85
2021/07/27 07:59:12;;;;;;;2.88;2.67;;;29.00;81.90;;;;;;5105659;28;20055;-83
2021/07/27 08:01:44;;;;;;;2.78;2.58;;;28.80;84.50;;;;;;5072417;28;20051;-83
2021/07/27 08:04:12;;;;;;;4.32;2.75;;;29.00;84.30;;;;;;5072010;28;20135;-86
2021/07/27 08:06:38;;;;;;;3.10;2.28;;;29.40;84.60;;;;;;5072400;28;20052;-85
2021/07/27 08:09:05;;;;;;;2.70;2.50;;;29.50;84.30;;;;;;5072087;28;20053;-88
2021/07/27 08:11:32;;;;;;;3.55;2.67;;;29.30;84.40;;;;;;5072332;28;20050;-85
2021/07/27 08:13:59;;;;;;;3.40;2.83;;;28.60;84.40;;;;;;5071951;28;20066;-87
2021/07/27 08:16:26;;;;;;;3.60;2.55;;;27.60;84.40;;;;;;5072286;28;20132;-87
2021/07/27 08:18:53;;;;;;;4.13;2.80;;;27.60;86.10;;;;;;5072102;28;20060;-85
2021/07/27 08:21:26;;;;;;;2.75;2.55;;;27.40;88.10;;;;;;5072066;28;20568;-85
2021/07/27 08:23:53;;;;;;;5.40;2.75;;;26.90;89.40;;;;;;5071975;28;20515;-86
2021/07/27 08:26:19;;;;;;;2.90;2.70;;;26.60;90.00;;;;;;5071802;28;20404;-84
2021/07/27 08:28:46;;;;;;;4.60;2.85;;;26.10;90.80;;;;;;5073144;28;20060;-86
2021/07/27 08:31:13;;;;;;;4.40;2.60;;;25.40;92.70;;;;;;5078668;28;20048;-86
2021/07/27 08:33:41;;;;;;;4.25;2.88;;;25.10;93.80;;;;;;5075777;28;20055;-86
2021/07/27 08:36:08;;;;;;;3.90;3.13;;;25.10;95.30;;;;;;5075772;28;20440;-86
2021/07/27 08:38:36;;;;;;;2.90;2.63;;;25.10;96.50;;;;;;5076943;28;20550;-84
2021/07/27 08:41:04;;;;;;;4.22;2.80;;;25.20;96.10;;;;;;5076257;28;20471;-85
2021/07/27 08:43:31;;;;;;;3.20;3.00;;;25.70;96.30;;;;;;5075895;28;20563;-83
2021/07/27 08:45:59;;;;;;;4.43;3.05;;;25.50;95.90;;;;;;5075887;28;20049;-84
2021/07/27 08:48:26;;;;;;;4.40;2.78;;;25.30;96.10;;;;;;5075777;28;20041;-84
2021/07/27 08:50:53;;;;;;;6.15;2.80;;;24.70;97.00;;;;;;5076138;28;20496;-83
2021/07/27 08:53:20;;;;;;;3.78;2.78;;;24.70;97.70;;;;;;5075969;28;20511;-86
2021/07/27 08:55:47;;;;;;;2.47;2.38;;;24.70;98.70;;;;;;5075777;28;20545;-87
2021/07/27 08:58:16;;;;;;;3.90;2.80;;;25.70;99.20;;;;;;5075846;28;20051;-85
2021/07/27 09:00:43;;;;;;;5.53;2.72;;;26.40;96.90;;;;;;5075483;28;20577;-84
2021/07/27 09:03:11;;;;;;;2.60;2.50;;;26.30;96.80;;;;;;5075472;28;20135;-83
2021/07/27 09:05:38;;;;;;;3.00;2.80;;;25.80;97.40;;;;;;5075595;28;20508;-84
2021/07/27 09:08:07;;;;;;;5.22;2.83;;;25.40;97.40;;;;;;5075675;28;20109;-87
2021/07/27 09:10:40;;;;;;;4.35;2.95;;;25.20;98.40;;;;;;5075364;28;20107;-86
2021/07/27 09:13:08;;;;;;;3.22;2.92;;;25.00;99.80;;;;;;5076764;28;20120;-86
2021/07/27 09:15:40;;;;;;;3.10;2.90;;;25.10;99.90;;;;;;5075220;28;20044;-85
2021/07/27 09:18:09;;;;;;;4.15;2.88;;;25.10;99.90;;;;;;5074760;28;20051;-85
2021/07/27 09:20:42;;;;;;;2.75;2.58;;;25.80;99.90;;;;;;5076539;28;20055;-85
2021/07/27 09:23:26;;;;;;;2.90;2.63;;;26.50;98.80;;;;;;5075404;28;20049;-84
2021/07/27 09:25:56;;;;;;;2.80;2.60;;;26.60;98.20;;;;;;5075191;28;20053;-84
2021/07/27 09:28:24;;;;;;;4.45;2.50;;;26.50;97.70;;;;;;5076105;28;20048;-86
2021/07/27 09:30:58;;;;;;;4.80;2.80;;;28.10;96.20;;;;;;5075100;28;20131;-85
2021/07/27 09:33:33;;;;;;;3.67;3.38;;;30.50;93.10;;;;;;5075224;28;20048;-87
2021/07/27 09:36:01;;;;;;;4.85;3.05;;;31.70;84.10;;;;;;5076120;28;20101;-87
2021/07/27 09:38:32;;;;;;;2.80;2.35;;;33.40;78.00;;;;;;5075083;28;20070;-85
2021/07/27 09:41:01;;;;;;;2.40;2.30;;;33.60;75.20;;;;;;5075000;28;20385;-89
2021/07/27 09:43:44;;;;;;;2.80;2.25;;;34.80;70.70;;;;;;5075359;28;20102;-86
2021/07/27 09:46:11;;;;;;;5.40;2.47;;;34.00;68.80;;;;;;5074883;28;20047;-86
2021/07/27 09:48:42;;;;;;;2.97;2.63;;;33.80;69.60;;;;;;5075375;28;20145;-86
2021/07/27 09:51:10;;;;;;;3.03;2.63;;;32.50;71.20;;;;;;5078708;28;20501;-87
2021/07/27 09:53:38;;;;;;;2.40;2.30;;;31.00;74.40;;;;;;5075192;28;20079;-86
2021/07/27 09:56:07;;;;;;;4.38;3.65;;;30.40;75.70;;;;;;5075867;28;20075;-86
2021/07/27 09:58:34;;;;;;;3.47;2.40;;;30.40;78.00;;;;;;5076463;28;20416;-87
2021/07/27 10:01:06;;;;;;;2.70;2.60;;;30.10;77.20;;;;;;5075136;28;20052;-87
2021/07/27 10:04:01;;;;;;;2.90;2.70;;;29.90;76.70;;;;;;5074879;28;20137;-87
2021/07/27 10:06:32;;;;;;;3.20;2.97;;;29.10;77.70;;;;;;5074646;28;20177;-85
2021/07/27 10:09:01;;;;;;;3.17;2.92;;;28.10;77.90;;;;;;5074708;28;20048;-84
2021/07/27 10:11:36;;;;;;;3.22;2.70;;;27.60;79.00;;;;;;5075690;28;20124;-86
2021/07/27 10:14:08;;;;;;;4.75;3.25;;;27.00;85.00;;;;;;5074558;28;20051;-86
2021/07/27 10:16:36;;;;;;;3.38;3.08;;;27.00;86.40;;;;;;5074304;28;20047;-84
2021/07/27 10:19:15;;;;;;;3.22;2.95;;;26.50;84.60;;;;;;5073215;28;20056;-85
2021/07/27 10:21:43;;;;;;;3.90;2.67;;;26.60;87.20;;;;;;5074397;28;20136;-86
2021/07/27 10:24:12;;;;;;;2.53;2.42;;;27.90;87.60;;;;;;5073538;28;20053;-85
2021/07/27 10:26:40;;;;;;;3.38;2.65;;;30.20;81.70;;;;;;5074039;28;20045;-84
2021/07/27 10:29:07;;;;;;;3.30;2.50;;;32.70;75.40;;;;;;5073739;28;20489;-86
2021/07/27 10:31:39;;;;;;;2.58;2.38;;;34.60;70.20;;;;;;5075108;28;20159;-88
2021/07/27 10:34:10;;;;;;;2.75;2.65;;;35.40;66.80;;;;;;5073626;28;20475;-86
2021/07/27 10:36:42;;;;;;;2.97;2.78;;;34.50;65.50;;;;;;5073865;28;20143;-86
2021/07/27 10:39:15;;;;;;;2.95;2.65;;;33.60;67.30;;;;;;5073683;28;20488;-86
2021/07/27 10:41:47;;;;;;;2.97;2.58;;;32.70;68.00;;;;;;5073926;28;20048;-86
2021/07/27 10:44:16;;;;;;;3.77;2.77;;;31.90;70.60;;;;;;5072906;28;20057;-87
2021/07/27 10:46:44;;;;;;;3.92;2.83;;;31.10;72.20;;;;;;5074591;28;20049;-87
2021/07/27 10:49:17;;;;;;;3.03;2.78;;;30.60;73.10;;;;;;5073400;28;20055;-86
2021/07/27 10:51:46;;;;;;;2.65;2.45;;;30.30;76.60;;;;;;5074241;28;20099;-87
2021/07/27 10:54:15;;;;;;;3.97;3.15;;;30.30;75.50;;;;;;5073846;28;20045;-86
2021/07/27 10:56:59;;;;;;;3.90;3.08;;;30.00;74.40;;;;;;5073212;28;20079;-85
2021/07/27 10:59:27;;;;;;;4.20;3.10;;;29.70;76.70;;;;;;5073249;28;20127;-86
2021/07/27 11:01:54;;;;;;;3.40;3.20;;;30.00;75.20;;;;;;5073107;28;20559;-86
2021/07/27 11:04:32;;;;;;;2.75;2.55;;;30.30;74.50;;;;;;5073336;28;20048;-86
2021/07/27 11:07:15;;;;;;;3.65;2.90;;;31.30;73.30;;;;;;5073100;28;20052;-85
2021/07/27 11:09:49;;;;;;;;;;;30.60;72.40;;;;;;5075277;28;20404;-85
2021/07/27 11:12:35;;;;;;;3.60;2.80;;;30.00;73.20;;;;;;5075077;28;19920;-86
2021/07/27 11:15:07;;;;;;;3.58;3.17;;;29.70;75.90;;;;;;5072663;28;20070;-86
2021/07/27 11:17:34;;;;;;;5.03;3.10;;;29.60;75.70;;;;;;5072843;28;20149;-87
2021/07/27 11:20:02;;;;;;;3.63;3.15;;;29.60;76.40;;;;;;5072754;28;20132;-86
2021/07/27 11:22:30;;;;;;;5.13;3.42;;;29.60;75.50;;;;;;5072512;28;20045;-87
2021/07/27 11:24:57;;;;;;;6.60;3.10;;;29.50;75.70;;;;;;5072637;28;20468;-89
2021/07/27 11:27:28;;;;;;;3.80;2.97;;;30.80;74.00;;;;;;5072544;28;20056;-85
2021/07/27 11:30:01;;;;;;;4.38;3.00;;;30.30;75.90;;;;;;5072511;28;20075;-85
2021/07/27 11:33:06;;;;;;;3.35;3.05;;;30.90;74.50;;;;;;5073617;28;20234;-87
2021/07/27 11:35:42;;;;;;;5.30;2.67;;;31.30;73.70;;;;;;5066352;28;20056;-87
2021/07/27 11:38:10;;;;;;;3.42;2.58;;;31.80;72.50;;;;;;5072325;28;20052;-86
2021/07/27 11:40:37;;;;;;;3.65;2.72;;;32.30;73.00;;;;;;5072425;28;20560;-84
2021/07/27 11:43:06;;;;;;;6.53;3.08;;;31.40;71.30;;;;;;5072446;28;20080;-85
2021/07/27 11:45:35;;;;;;;3.33;3.13;;;30.50;72.30;;;;;;5073247;28;20044;-87
2021/07/27 11:48:02;;;;;;;3.95;3.15;;;29.70;73.70;;;;;;5072264;28;20059;-86
2021/07/27 11:50:34;;;;;;;3.33;3.00;;;29.60;75.80;;;;;;5072454;28;20132;-87
2021/07/27 11:53:03;;;;;;;3.45;2.75;;;29.40;76.60;;;;;;5072720;28;20056;-87
2021/07/27 11:55:32;;;;;;;3.05;2.75;;;29.40;75.60;;;;;;5072008;28;20477;-88
2021/07/27 11:57:59;;;;;;;4.60;2.90;;;29.10;76.10;;;;;;5071342;28;20127;-87
2021/07/27 12:00:27;;;;;;;3.20;2.97;;;28.80;77.90;;;;;;5072500;28;20483;-87
2021/07/27 12:02:54;;;;;;;3.75;2.80;;;28.60;77.80;;;;;;5072655;28;20048;-87
2021/07/27 12:05:21;;;;;;;3.50;3.20;;;28.90;78.80;;;;;;5071905;28;20048;-87
2021/07/27 12:07:48;;;;;;;4.75;3.05;;;28.60;77.70;;;;;;5072215;28;20131;-87
2021/07/27 12:10:15;;;;;;;5.07;3.00;;;28.80;79.70;;;;;;5073286;28;20084;-86
2021/07/27 12:12:43;;;;;;;6.25;2.97;;;29.10;79.70;;;;;;5073266;28;20060;-87
2021/07/27 12:15:15;;;;;;;2.85;2.70;;;29.10;77.70;;;;;;5072091;28;20440;-87
2021/07/27 12:17:42;;;;;;;5.90;3.20;;;29.00;75.60;;;;;;5072296;28;20131;-86
2021/07/27 12:20:12;;;;;;;3.78;3.40;;;29.00;74.90;;;;;;5072255;28;20048;-86
2021/07/27 12:22:40;;;;;;;4.20;3.35;;;28.50;77.90;;;;;;5073100;28;20047;-86
2021/07/27 12:25:07;;;;;;;3.40;3.20;;;28.20;78.10;;;;;;5073057;28;20416;-87
2021/07/27 12:27:34;;;;;;;3.30;3.00;;;28.40;81.20;;;;;;5072269;28;20044;-88
2021/07/27 12:30:01;;;;;;;3.30;2.85;;;28.40;76.70;;;;;;5072794;28;20090;-85
2021/07/27 12:32:28;;;;;;;3.33;3.05;;;28.60;77.50;;;;;;5073053;28;20080;-86
2021/07/27 12:35:08;;;;;;;5.28;3.17;;;28.80;78.30;;;;;;5072041;28;20471;-88
2021/07/27 12:37:35;;;;;;;6.07;3.13;;;28.80;77.30;;;;;;5072128;28;20209;-85
2021/07/27 12:40:06;;;;;;;4.15;3.35;;;28.60;76.10;;;;;;5071752;28;20414;-86
2021/07/27 12:42:32;;;;;;;3.05;2.85;;;28.30;77.10;;;;;;5072079;28;20400;-87
2021/07/27 12:44:59;;;;;;;4.65;3.40;;;28.00;77.80;;;;;;5072104;28;20143;-87
2021/07/27 12:47:26;;;;;;;4.18;3.40;;;28.10;78.20;;;;;;5072198;28;20400;-88
2021/07/27 12:49:56;;;;;;;3.17;2.97;;;28.10;76.90;;;;;;5071894;28;20484;-87
2021/07/27 12:52:23;;;;;;;3.92;3.47;;;28.40;76.70;;;;;;5071981;28;20053;-88
2021/07/27 12:54:50;;;;;;;3.55;3.25;;;28.70;79.00;;;;;;5071889;28;20055;-88
2021/07/27 12:57:17;;;;;;;11.05;3.22;;;28.70;75.60;;;;;;5072951;28;20091;-86
2021/07/27 12:59:46;;;;;;;4.65;3.60;;;28.60;74.40;;;;;;5072700;28;20074;-84
2021/07/27 13:02:13;;;;;;;3.67;3.47;;;28.10;76.90;;;;;;5071370;28;20048;-88
2021/07/27 13:04:40;;;;;;;3.40;3.20;;;27.70;76.30;;;;;;5072827;28;20528;-86
2021/07/27 13:07:07;;;;;;;5.47;3.17;;;27.70;78.20;;;;;;5071649;28;20056;-86